Jacquet River, Canada
Current Conditions -  °F | °C
As of 6:00 AM on Friday 31 Oct 2014 (Local Time) from CZBF Reporting Station
Clear Clear  
Wind Chill: 25°   Ceiling: Unl
Heat Index: 30°   Visibility: 15mi
Dew Point: 27°   Wind: 5mph
Humidity: 86%   Direction: 270°W
Pressure: 29.98"   Gusts: NA
Location:  47.92°N, 66°W
Report Text: CZBF 310900Z 27004KT 15SM SKC M01/M03 A2998 RMK SLP156
Loading
Personal Weather Stations






























Interactive Weather Map New forecast layout! Learn more

10-Day Weather Forecast

Advertisements
Track Severe Weather on mobile